Terminal Aerodrome Forecast
Issued by NWS

Home | Current Version | Previous Version | Text Only | Print | Product List | Glossary On
Versions: 1 2 3 4 5 6 7 8 9 10 11 12 13 14 15 16
723
FTPA31 PHFO 310835 AAA
TAFHMK
TAF AMD
PHMK 310835Z 3109/0106 02009KT P6SM VCSH SCT020 BKN050
      TEMPO 3109/3113 01010G15KT -SHRA SCT015 BKN022
     FM312000 03011G19KT P6SM VCSH SCT020 BKN050
     FM010500 03009KT P6SM VCSH SCT020 BKN045=

USA.gov is the U.S. government's official web portal to all federal, state and local government web resources and services.